Time;durP1;ratioP1;P1;durP2;ratioP2;P2;SDS_P1;SDS_P2;PMS_P1;PMS_P2;Temp;Humidity;BMP_temperature;BMP_pressure;BME280_temperature;BME280_humidity;BME280_pressure;Samples;Min_cycle;Max_cycle;Signal;HPM_P1;HPM_P2
2022/12/17 13:08:07;;;;;;;27.03;17.27;;;2.20;99.90;;;;;;5043577;28;20486;-40
2022/12/17 13:10:34;;;;;;;25.70;17.50;;;2.10;99.90;;;;;;5044216;28;20806;-39
2022/12/17 13:13:31;;;;;;;27.50;18.80;;;1.90;99.90;;;;;;5046300;28;20475;-36
2022/12/17 13:16:21;;;;;;;23.73;17.50;;;1.80;99.90;;;;;;5046596;28;20514;-37
2022/12/17 13:18:47;;;;;;;25.33;17.10;;;1.70;99.90;;;;;;5035853;28;21051;-39
2022/12/17 13:21:16;;;;;;;24.63;17.13;;;1.80;99.90;;;;;;5044872;28;20448;-39
2022/12/17 13:23:42;;;;;;;23.13;16.63;;;1.60;99.90;;;;;;5045282;28;20297;-40
2022/12/17 13:26:17;;;;;;;24.63;16.83;;;1.70;99.90;;;;;;5046089;28;20463;-34
2022/12/17 13:29:07;;;;;;;24.93;17.87;;;1.70;99.90;;;;;;5042401;28;20532;-39
2022/12/17 13:32:02;;;;;;;26.47;19.27;;;1.70;99.90;;;;;;5039969;28;20471;-34
2022/12/17 13:35:02;;;;;;;28.63;18.47;;;1.70;99.90;;;;;;5042007;28;20472;-40
2022/12/17 13:37:39;;;;;;;24.73;16.40;;;1.50;99.90;;;;;;5046603;28;20542;-39
2022/12/17 13:40:43;;;;;;;28.40;17.70;;;1.50;99.90;;;;;;5046292;28;20793;-39
2022/12/17 13:43:22;;;;;;;23.60;17.50;;;1.50;99.90;;;;;;5045339;28;20867;-38
2022/12/17 13:45:51;;;;;;;27.23;17.60;;;1.40;99.90;;;;;;5046692;28;20466;-37
2022/12/17 13:48:24;;;;;;;28.63;19.50;;;1.20;99.90;;;;;;5042335;28;20730;-36
2022/12/17 13:50:55;;;;;;;26.00;17.90;;;1.30;99.90;;;;;;5049246;28;20448;-38
2022/12/17 13:53:21;;;;;;;22.40;18.07;;;1.20;99.90;;;;;;5049677;28;20530;-35
2022/12/17 13:55:52;;;;;;;26.40;18.47;;;1.10;99.90;;;;;;5052130;28;21015;-38
2022/12/17 13:58:32;;;;;;;24.97;17.00;;;1.30;99.90;;;;;;5049759;28;20482;-38
2022/12/17 14:01:13;;;;;;;25.20;17.50;;;1.30;99.90;;;;;;5038525;28;20592;-39
2022/12/17 14:03:48;;;;;;;25.57;17.90;;;1.00;99.90;;;;;;5049397;28;20467;-37
2022/12/17 14:06:14;;;;;;;22.70;17.13;;;1.40;99.90;;;;;;5049531;28;20557;-40
2022/12/17 14:08:41;;;;;;;22.63;16.30;;;1.00;99.90;;;;;;5041910;28;20464;-37
2022/12/17 14:13:52;;;;;;;28.27;16.80;;;1.20;99.90;;;;;;5049923;28;20545;-39
2022/12/17 14:16:20;;;;;;;22.07;17.13;;;1.20;99.90;;;;;;5049378;28;20892;-41
2022/12/17 14:18:52;;;;;;;22.87;17.00;;;1.20;99.90;;;;;;5047254;28;20843;-42
2022/12/17 14:21:19;;;;;;;23.73;16.07;;;1.30;99.90;;;;;;5049153;28;20444;-37
2022/12/17 14:23:48;;;;;;;23.97;16.33;;;1.20;99.90;;;;;;5049463;28;20487;-41
2022/12/17 14:26:15;;;;;;;23.30;16.30;;;1.00;99.90;;;;;;5050894;28;20731;-41
2022/12/17 14:28:52;;;;;;;23.77;17.93;;;1.10;99.90;;;;;;5046242;28;20472;-41
2022/12/17 14:31:23;;;;;;;25.00;17.30;;;0.90;99.90;;;;;;5042155;28;20542;-39
2022/12/17 14:34:07;;;;;;;23.73;17.07;;;1.10;99.90;;;;;;5045858;28;20753;-38
2022/12/17 14:36:38;;;;;;;24.73;16.20;;;1.00;99.90;;;;;;5046526;28;20653;-41
2022/12/17 14:39:14;;;;;;;27.33;16.77;;;1.00;99.90;;;;;;5048321;28;20447;-39
2022/12/17 14:44:27;;;;;;;23.40;16.60;;;0.90;99.90;;;;;;5047109;28;20478;-41
2022/12/17 14:47:08;;;;;;;25.77;16.23;;;0.90;99.90;;;;;;5047755;28;20464;-38
2022/12/17 14:49:36;;;;;;;19.97;14.90;;;0.90;99.90;;;;;;5041820;28;20540;-40
2022/12/17 14:52:25;;;;;;;22.87;16.80;;;0.90;99.90;;;;;;5043641;28;20452;-40
2022/12/17 14:54:51;;;;;;;20.23;15.53;;;0.80;99.90;;;;;;5049099;28;20930;-36
2022/12/17 14:57:20;;;;;;;19.30;15.63;;;0.90;99.90;;;;;;5048670;28;20551;-36
2022/12/17 14:59:46;;;;;;;19.80;14.03;;;0.80;99.90;;;;;;5048417;28;20308;-40
2022/12/17 15:02:22;;;;;;;20.70;15.53;;;0.90;99.90;;;;;;5034327;28;20933;-39
2022/12/17 15:04:50;;;;;;;24.07;16.10;;;0.80;99.90;;;;;;5041186;28;20221;-37
2022/12/17 15:07:25;;;;;;;20.47;14.60;;;0.90;99.90;;;;;;5039454;28;20461;-36
2022/12/17 15:09:52;;;;;;;22.50;15.00;;;0.90;99.90;;;;;;5036355;28;20449;-42
2022/12/17 15:12:23;;;;;;;21.07;14.27;;;0.60;99.90;;;;;;5046129;28;20450;-41
2022/12/17 15:14:50;;;;;;;23.03;14.80;;;0.80;99.90;;;;;;5045237;28;20520;-42
2022/12/17 15:17:16;;;;;;;21.40;15.10;;;0.80;99.90;;;;;;5044965;28;20503;-40
2022/12/17 15:19:41;;;;;;;20.73;14.70;;;0.60;99.90;;;;;;5047508;28;20328;-40
2022/12/17 15:22:17;;;;;;;19.67;14.23;;;0.70;99.90;;;;;;5048488;28;20569;-37
2022/12/17 15:24:43;;;;;;;18.87;13.23;;;0.50;99.90;;;;;;5047552;28;20523;-38
2022/12/17 15:27:15;;;;;;;16.37;12.33;;;0.40;99.90;;;;;;5047191;28;20459;-40
2022/12/17 15:29:43;;;;;;;17.20;12.93;;;0.60;99.90;;;;;;5046156;28;20505;-38
2022/12/17 15:32:20;;;;;;;21.33;14.97;;;0.30;99.90;;;;;;5047514;28;20440;-40
2022/12/17 15:34:46;;;;;;;19.60;13.97;;;0.30;99.90;;;;;;5034629;28;20475;-41
2022/12/17 15:37:13;;;;;;;18.17;13.47;;;0.40;99.90;;;;;;5045099;28;20453;-40
2022/12/17 15:39:38;;;;;;;17.63;12.80;;;0.40;99.90;;;;;;5044981;28;20594;-40
2022/12/17 15:44:48;;;;;;;17.33;12.80;;;0.20;99.90;;;;;;5036575;28;20269;-38
2022/12/17 15:47:14;;;;;;;20.80;14.13;;;0.40;99.90;;;;;;5046919;28;20572;-38
2022/12/17 15:49:39;;;;;;;17.30;13.13;;;0.10;99.90;;;;;;5046242;28;20209;-38
2022/12/17 15:52:05;;;;;;;17.87;13.70;;;0.30;99.90;;;;;;5045661;28;20225;-39
2022/12/17 15:54:31;;;;;;;19.20;12.70;;;0.30;99.90;;;;;;5046774;28;20675;-37
2022/12/17 15:56:57;;;;;;;21.37;12.67;;;0.40;99.90;;;;;;5046615;28;20555;-38
2022/12/17 15:59:23;;;;;;;18.53;13.57;;;0.20;99.90;;;;;;5045838;28;20295;-38
2022/12/17 16:01:49;;;;;;;15.40;11.80;;;0.30;99.90;;;;;;5047140;28;20564;-39
2022/12/17 16:04:15;;;;;;;16.53;12.70;;;0.00;99.90;;;;;;5044629;28;20622;-39
2022/12/17 16:06:41;;;;;;;16.90;12.80;;;0.00;99.90;;;;;;5036539;28;20874;-40
2022/12/17 16:09:07;;;;;;;17.20;11.90;;;-0.10;99.90;;;;;;5035113;28;20328;-38
2022/12/17 16:11:33;;;;;;;18.37;12.60;;;-0.10;99.90;;;;;;5032210;28;20947;-39
2022/12/17 16:13:58;;;;;;;17.20;12.83;;;-0.20;99.90;;;;;;5036452;28;20303;-35
2022/12/17 16:16:24;;;;;;;19.50;13.60;;;-0.10;99.90;;;;;;5045135;28;20225;-37
2022/12/17 16:18:51;;;;;;;16.70;12.50;;;0.00;99.90;;;;;;5040861;28;20614;-39
2022/12/17 16:21:16;;;;;;;19.80;14.10;;;-0.30;99.90;;;;;;5032425;28;20720;-40
2022/12/17 16:23:42;;;;;;;19.83;13.97;;;-0.30;99.90;;;;;;5031219;28;20465;-40
2022/12/17 16:26:09;;;;;;;26.30;17.30;;;-0.30;99.90;;;;;;5045071;28;20621;-38
2022/12/17 16:28:35;;;;;;;22.70;14.63;;;-0.20;99.90;;;;;;5041122;28;20697;-38
2022/12/17 16:31:04;;;;;;;20.27;15.20;;;-0.20;99.90;;;;;;5031680;28;20434;-37
2022/12/17 16:33:34;;;;;;;23.10;15.70;;;-0.30;99.90;;;;;;5027931;28;20547;-40
2022/12/17 16:36:00;;;;;;;24.67;17.50;;;-0.20;99.90;;;;;;5035549;28;20423;-36
2022/12/17 16:38:26;;;;;;;26.07;17.83;;;-0.30;99.90;;;;;;5029021;28;20460;-38
2022/12/17 16:40:57;;;;;;;28.03;18.87;;;-0.30;99.90;;;;;;5041765;28;20506;-40
2022/12/17 16:43:23;;;;;;;22.80;17.00;;;-0.50;99.90;;;;;;5036077;28;20491;-38
2022/12/17 16:45:50;;;;;;;24.80;16.90;;;-0.60;99.90;;;;;;5036076;28;20909;-41
2022/12/17 16:48:18;;;;;;;27.80;19.00;;;-0.30;99.90;;;;;;5023369;28;21004;-39
2022/12/17 16:50:44;;;;;;;27.00;18.77;;;-0.60;99.90;;;;;;5042883;28;20475;-38
2022/12/17 16:53:11;;;;;;;23.60;18.17;;;-0.60;99.90;;;;;;5041552;28;20537;-40
2022/12/17 16:55:41;;;;;;;31.33;22.17;;;-0.60;99.90;;;;;;5041141;28;20765;-39
2022/12/17 16:58:07;;;;;;;27.50;20.00;;;-0.80;99.90;;;;;;5029454;28;20836;-38
2022/12/17 17:00:34;;;;;;;27.27;17.67;;;-0.60;99.90;;;;;;5033697;28;20572;-43
2022/12/17 17:02:59;;;;;;;25.63;17.90;;;-0.50;99.90;;;;;;5044607;28;20454;-39
2022/12/17 17:05:25;;;;;;;20.33;15.87;;;-0.50;99.90;;;;;;5046851;28;20567;-39
2022/12/17 17:07:51;;;;;;;23.27;17.33;;;-0.60;99.90;;;;;;5041062;28;20574;-42
2022/12/17 17:10:17;;;;;;;25.20;18.27;;;-0.50;99.90;;;;;;5044094;28;20448;-41
2022/12/17 17:12:42;;;;;;;29.47;21.00;;;-0.30;99.90;;;;;;5036361;28;20226;-41
2022/12/17 17:15:09;;;;;;;21.20;15.87;;;-0.50;99.90;;;;;;5037835;28;20221;-40
2022/12/17 17:17:34;;;;;;;22.77;16.00;;;-0.50;99.90;;;;;;5034024;28;20610;-42
2022/12/17 17:20:00;;;;;;;24.30;16.77;;;-0.50;99.90;;;;;;5035360;28;20458;-41
2022/12/17 17:22:26;;;;;;;23.83;17.00;;;-0.70;99.90;;;;;;5037649;28;20246;-39
2022/12/17 17:24:51;;;;;;;24.30;16.27;;;-0.70;99.90;;;;;;5046697;28;20246;-36
2022/12/17 17:27:17;;;;;;;22.30;15.90;;;-0.80;99.90;;;;;;5049139;28;20298;-38
2022/12/17 17:29:42;;;;;;;24.77;17.03;;;-0.70;99.90;;;;;;5044255;28;20660;-37
2022/12/17 17:32:08;;;;;;;20.73;14.90;;;-0.70;99.90;;;;;;5045031;28;20288;-42
2022/12/17 17:34:34;;;;;;;19.40;14.10;;;-1.10;99.90;;;;;;5045502;28;20249;-38
2022/12/17 17:36:59;;;;;;;19.00;14.97;;;-0.80;99.90;;;;;;5049037;28;20883;-42
2022/12/17 17:39:26;;;;;;;18.37;14.67;;;-1.00;99.90;;;;;;5045431;28;20201;-42
2022/12/17 17:41:51;;;;;;;24.70;16.53;;;-1.00;99.90;;;;;;5046492;28;20259;-39
2022/12/17 17:44:17;;;;;;;19.93;14.33;;;-1.10;99.90;;;;;;5044205;28;20452;-42
2022/12/17 17:46:43;;;;;;;19.50;13.30;;;-1.10;99.90;;;;;;5048159;28;20578;-42
2022/12/17 17:49:10;;;;;;;19.50;13.43;;;-1.20;99.90;;;;;;5044229;28;20324;-39
2022/12/17 17:51:42;;;;;;;16.60;12.70;;;-1.10;99.90;;;;;;5047666;28;20288;-41
2022/12/17 17:54:09;;;;;;;17.43;12.60;;;-1.00;99.90;;;;;;5046434;28;21091;-41
2022/12/17 17:56:38;;;;;;;19.13;13.50;;;-1.10;99.90;;;;;;5038667;28;20531;-36
2022/12/17 17:59:09;;;;;;;18.47;13.83;;;-1.10;99.90;;;;;;5038844;28;20460;-36
2022/12/17 18:01:44;;;;;;;15.63;11.33;;;-1.20;99.90;;;;;;5045173;28;21041;-41
2022/12/17 18:04:12;;;;;;;14.37;11.83;;;-1.30;99.90;;;;;;5046716;28;20969;-36
2022/12/17 18:06:40;;;;;;;15.77;11.40;;;-1.10;99.90;;;;;;5045317;28;20856;-40
2022/12/17 18:09:06;;;;;;;22.67;14.60;;;-1.10;99.90;;;;;;5031888;28;20953;-43
2022/12/17 18:11:33;;;;;;;18.40;13.13;;;-1.20;99.90;;;;;;5044617;28;20447;-40
2022/12/17 18:14:00;;;;;;;20.90;14.60;;;-1.20;99.90;;;;;;5038957;28;20520;-40
2022/12/17 18:16:37;;;;;;;18.17;12.60;;;-1.40;99.90;;;;;;5047233;28;20440;-39
2022/12/17 18:19:13;;;;;;;21.20;15.80;;;-1.50;99.90;;;;;;5032300;28;20492;-40
2022/12/17 18:21:39;;;;;;;20.20;13.73;;;-1.20;99.90;;;;;;5034822;28;20436;-36
2022/12/17 18:24:16;;;;;;;19.80;14.00;;;-1.30;99.90;;;;;;5038575;28;20569;-42
2022/12/17 18:26:45;;;;;;;20.23;14.23;;;-1.30;99.90;;;;;;5040131;28;20530;-40
2022/12/17 18:29:18;;;;;;;19.30;14.03;;;-1.30;99.90;;;;;;5040964;28;20484;-40
2022/12/17 18:31:44;;;;;;;19.90;13.80;;;-1.20;99.90;;;;;;5043715;28;20637;-38
2022/12/17 18:34:15;;;;;;;15.90;13.73;;;-1.40;99.90;;;;;;5039332;28;20572;-41
2022/12/17 18:36:42;;;;;;;18.23;13.07;;;-1.40;99.90;;;;;;5043122;28;20316;-42
2022/12/17 18:39:17;;;;;;;18.07;14.37;;;-1.10;99.90;;;;;;5045984;28;20801;-38
2022/12/17 18:44:31;;;;;;;16.83;13.67;;;-1.40;99.90;;;;;;5044276;28;20759;-37
2022/12/17 18:46:57;;;;;;;15.97;12.67;;;-1.30;99.90;;;;;;5040322;28;20427;-39
2022/12/17 18:49:25;;;;;;;19.63;13.63;;;-1.20;99.90;;;;;;5041147;28;20460;-37
2022/12/17 18:51:51;;;;;;;15.53;11.20;;;-1.20;99.90;;;;;;5045225;28;20465;-40
2022/12/17 18:54:23;;;;;;;15.30;10.20;;;-1.20;99.90;;;;;;5046013;28;20992;-40
2022/12/17 18:56:50;;;;;;;19.73;14.87;;;-1.00;99.90;;;;;;5046411;28;20415;-39
2022/12/17 18:59:18;;;;;;;16.53;12.00;;;-1.00;99.90;;;;;;5045297;28;20518;-40
2022/12/17 19:01:45;;;;;;;13.93;12.43;;;-1.00;99.90;;;;;;5040725;28;20465;-41
2022/12/17 19:04:14;;;;;;;13.80;11.33;;;-1.10;99.90;;;;;;5046046;28;20467;-41
2022/12/17 19:06:41;;;;;;;15.10;11.40;;;-1.20;99.90;;;;;;5046810;28;20448;-41
2022/12/17 19:09:14;;;;;;;16.93;12.43;;;-1.10;99.90;;;;;;5041751;28;20565;-37
2022/12/17 19:11:40;;;;;;;19.27;13.73;;;-1.20;99.90;;;;;;5045185;28;20426;-37
2022/12/17 19:14:06;;;;;;;17.10;12.67;;;-1.20;99.90;;;;;;5043603;28;20483;-38
2022/12/17 19:16:31;;;;;;;18.27;13.60;;;-1.20;99.90;;;;;;5042105;28;20213;-40
2022/12/17 19:19:02;;;;;;;19.70;14.07;;;-1.00;99.90;;;;;;5045339;28;20634;-41
2022/12/17 19:21:30;;;;;;;25.07;18.00;;;-1.10;99.90;;;;;;5044195;28;20280;-40
2022/12/17 19:23:58;;;;;;;23.50;17.07;;;-0.80;99.90;;;;;;5043718;28;20434;-42
2022/12/17 19:26:24;;;;;;;26.00;19.57;;;-0.90;99.90;;;;;;5043820;28;20521;-40
2022/12/17 19:28:52;;;;;;;19.17;15.20;;;-1.00;99.90;;;;;;5042818;28;20467;-38
2022/12/17 19:31:19;;;;;;;24.97;17.50;;;-1.00;99.90;;;;;;5044146;28;20468;-40
2022/12/17 19:33:45;;;;;;;22.90;20.50;;;-1.00;99.90;;;;;;5038792;28;20568;-41
2022/12/17 19:36:17;;;;;;;27.70;22.07;;;-0.60;99.90;;;;;;5032819;28;20547;-40
2022/12/17 19:38:44;;;;;;;23.03;19.57;;;-0.90;99.90;;;;;;5033635;28;20490;-39
2022/12/17 19:41:15;;;;;;;25.37;22.70;;;-0.90;99.90;;;;;;5044749;28;20540;-39
2022/12/17 19:43:42;;;;;;;39.53;29.10;;;-0.80;99.90;;;;;;5045623;28;20547;-41
2022/12/17 19:46:11;;;;;;;26.07;18.37;;;-0.70;99.90;;;;;;5046094;28;20452;-39
2022/12/17 19:48:39;;;;;;;27.13;19.90;;;-0.70;99.90;;;;;;5044281;28;20852;-36
2022/12/17 19:51:06;;;;;;;16.40;11.93;;;-0.80;99.90;;;;;;5046073;28;20417;-39
2022/12/17 19:53:34;;;;;;;15.83;11.20;;;-0.60;99.90;;;;;;5044601;28;20507;-42
2022/12/17 19:56:17;;;;;;;18.30;11.60;;;-0.50;99.90;;;;;;5042419;28;20448;-43
2022/12/17 19:58:44;;;;;;;13.47;11.10;;;-0.50;99.90;;;;;;5038242;28;20464;-41
2022/12/17 20:01:16;;;;;;;14.20;11.87;;;-0.60;99.90;;;;;;5045325;28;20423;-42
2022/12/17 20:03:43;;;;;;;14.33;11.00;;;-0.80;99.90;;;;;;5040721;28;20965;-42
2022/12/17 20:06:11;;;;;;;21.17;13.90;;;-0.80;99.90;;;;;;5039061;28;20477;-40
2022/12/17 20:08:37;;;;;;;35.50;21.43;;;-0.70;99.90;;;;;;5039395;28;20861;-40
2022/12/17 20:11:31;;;;;;;20.67;13.40;;;-0.70;99.90;;;;;;5043517;28;20509;-37
2022/12/17 20:14:15;;;;;;;23.07;14.57;;;-0.60;99.90;;;;;;5039825;28;20222;-40
2022/12/17 20:16:53;;;;;;;32.70;23.20;;;-0.70;99.90;;;;;;5041767;28;20426;-39
2022/12/17 20:19:21;;;;;;;31.63;21.63;;;-0.50;99.90;;;;;;5029125;28;20465;-41
2022/12/17 20:21:47;;;;;;;27.80;18.83;;;-0.50;99.90;;;;;;5029787;28;20530;-39
2022/12/17 20:24:13;;;;;;;36.43;23.13;;;-0.80;99.90;;;;;;5036090;28;20540;-42
2022/12/17 20:26:39;;;;;;;41.40;21.80;;;-0.60;99.90;;;;;;5040755;28;20423;-37
2022/12/17 20:29:06;;;;;;;35.67;22.50;;;-0.60;99.90;;;;;;5028589;28;20536;-40
2022/12/17 20:31:32;;;;;;;16.77;12.23;;;-0.60;99.90;;;;;;5028675;28;20536;-38
2022/12/17 20:34:06;;;;;;;17.07;12.40;;;-0.50;99.90;;;;;;5037848;28;20514;-39
2022/12/17 20:36:32;;;;;;;27.53;19.90;;;-0.50;99.90;;;;;;5041924;28;20444;-37
2022/12/17 20:38:58;;;;;;;15.20;11.47;;;-0.50;99.90;;;;;;5042555;28;20454;-39
2022/12/17 20:41:26;;;;;;;16.30;13.00;;;-0.40;99.90;;;;;;5044684;28;20951;-41
2022/12/17 20:43:53;;;;;;;12.90;9.40;;;-0.60;99.90;;;;;;5042129;28;21045;-41
2022/12/17 20:46:20;;;;;;;18.40;12.57;;;-0.50;99.90;;;;;;5041289;28;20905;-41
2022/12/17 20:48:46;;;;;;;12.70;10.43;;;-0.60;99.90;;;;;;5025560;28;20456;-37
2022/12/17 20:51:16;;;;;;;11.10;8.23;;;-0.60;99.90;;;;;;5043015;28;20460;-40
2022/12/17 20:53:42;;;;;;;11.83;8.13;;;-0.80;99.90;;;;;;5045586;28;20526;-39
2022/12/17 20:56:14;;;;;;;11.97;7.63;;;-0.90;99.90;;;;;;5039747;28;20431;-40
2022/12/17 20:58:41;;;;;;;9.47;6.93;;;-0.80;99.90;;;;;;5040737;28;20505;-40
2022/12/17 21:01:12;;;;;;;10.20;7.73;;;-0.60;99.90;;;;;;5044220;28;20479;-41
2022/12/17 21:03:38;;;;;;;11.40;7.10;;;-0.90;99.90;;;;;;5045880;28;20438;-41
2022/12/17 21:06:05;;;;;;;11.90;7.60;;;-0.80;99.90;;;;;;5047839;28;20479;-41
2022/12/17 21:08:31;;;;;;;11.20;9.07;;;-0.80;99.90;;;;;;5043979;28;20462;-40
2022/12/17 21:10:57;;;;;;;13.50;9.43;;;-0.80;99.90;;;;;;5042609;28;20453;-39
2022/12/17 21:13:29;;;;;;;11.23;9.13;;;-0.80;99.90;;;;;;5035338;28;20598;-40
2022/12/17 21:16:00;;;;;;;12.63;9.40;;;-0.60;99.90;;;;;;5039122;28;20209;-41
2022/12/17 21:18:28;;;;;;;11.63;9.00;;;-0.70;99.90;;;;;;5036003;28;20432;-40
2022/12/17 21:21:02;;;;;;;11.07;7.47;;;-0.70;99.90;;;;;;5033000;28;20449;-41
2022/12/17 21:23:28;;;;;;;16.50;12.00;;;-0.80;99.90;;;;;;5035199;28;21036;-39
2022/12/17 21:26:02;;;;;;;13.80;9.93;;;-0.60;99.90;;;;;;5054649;28;20535;-40
2022/12/17 21:28:29;;;;;;;12.10;7.63;;;-0.60;99.90;;;;;;5033841;28;20970;-38
2022/12/17 21:30:55;;;;;;;11.23;9.57;;;-0.70;99.90;;;;;;5044304;28;20452;-41
2022/12/17 21:33:21;;;;;;;13.43;9.53;;;-0.70;99.90;;;;;;5032468;28;20560;-36
2022/12/17 21:35:47;;;;;;;10.37;8.77;;;-0.60;99.90;;;;;;5033415;28;20431;-43
2022/12/17 21:38:13;;;;;;;16.77;11.73;;;-0.70;99.90;;;;;;5032861;28;20436;-38
2022/12/17 21:40:39;;;;;;;16.63;11.77;;;-0.70;99.90;;;;;;5032289;28;20427;-40
2022/12/17 21:43:05;;;;;;;19.83;14.00;;;-0.70;99.90;;;;;;5031364;28;20435;-39
2022/12/17 21:45:36;;;;;;;11.67;8.80;;;-0.70;99.90;;;;;;5042741;28;20920;-41
2022/12/17 21:48:05;;;;;;;12.70;9.17;;;-0.70;99.90;;;;;;5039619;28;20213;-40
2022/12/17 21:50:31;;;;;;;14.57;9.00;;;-0.50;99.90;;;;;;5043919;28;20496;-37
2022/12/17 21:52:58;;;;;;;11.10;8.00;;;-0.60;99.90;;;;;;5031500;28;20460;-42
2022/12/17 21:55:24;;;;;;;17.00;10.80;;;-0.80;99.90;;;;;;5033255;28;20520;-41
2022/12/17 21:57:49;;;;;;;19.30;14.47;;;-0.70;99.90;;;;;;5044817;28;20456;-41
2022/12/17 22:00:16;;;;;;;16.53;11.73;;;-0.70;99.90;;;;;;5031489;28;20431;-41
2022/12/17 22:02:41;;;;;;;11.33;9.40;;;-0.60;99.90;;;;;;5046969;28;20303;-39
2022/12/17 22:05:07;;;;;;;9.80;6.57;;;-0.60;99.90;;;;;;5038162;28;20451;-37
2022/12/17 22:07:33;;;;;;;10.13;7.37;;;-0.70;99.90;;;;;;5049081;28;20205;-39
2022/12/17 22:09:59;;;;;;;13.70;9.87;;;-0.60;99.90;;;;;;5035575;28;20481;-39
2022/12/17 22:15:09;;;;;;;17.47;12.00;;;-0.60;99.90;;;;;;5041588;28;20222;-41
2022/12/17 22:17:36;;;;;;;14.07;10.03;;;-0.70;99.90;;;;;;5043425;28;20429;-39
2022/12/17 22:20:05;;;;;;;12.13;8.47;;;-0.80;99.90;;;;;;5039578;28;20416;-41
2022/12/17 22:22:31;;;;;;;13.27;9.30;;;-0.60;99.90;;;;;;5042830;28;20402;-39
2022/12/17 22:24:56;;;;;;;13.10;8.03;;;-0.80;99.90;;;;;;5028963;28;20481;-40
2022/12/17 22:27:23;;;;;;;9.93;7.27;;;-0.70;99.90;;;;;;5029449;28;20222;-41
2022/12/17 22:35:17;;;;;;;10.30;7.60;;;-0.90;99.90;;;;;;5029982;28;20710;-39
2022/12/17 22:37:42;;;;;;;8.07;6.73;;;-0.70;99.90;;;;;;5028884;28;20400;-41
2022/12/17 22:40:09;;;;;;;6.27;5.10;;;-0.90;99.90;;;;;;5041879;28;20192;-38
2022/12/17 22:45:23;;;;;;;7.83;5.50;;;-0.90;99.90;;;;;;5027807;28;20438;-40
2022/12/17 22:47:49;;;;;;;6.13;4.70;;;-0.70;99.90;;;;;;5029573;28;20964;-42
2022/12/17 22:50:14;;;;;;;8.00;5.87;;;-0.60;99.90;;;;;;5027509;28;20194;-40
2022/12/17 22:52:40;;;;;;;8.17;5.50;;;-0.70;99.90;;;;;;5040330;28;20394;-41
2022/12/17 22:55:06;;;;;;;7.67;5.60;;;-0.60;99.90;;;;;;5044738;28;20628;-42
2022/12/17 22:57:32;;;;;;;6.00;4.33;;;-0.90;99.90;;;;;;5039062;28;20187;-39
2022/12/17 22:59:58;;;;;;;7.07;4.83;;;-0.50;99.90;;;;;;5028944;28;20400;-41
2022/12/17 23:02:23;;;;;;;8.57;4.70;;;-0.70;99.90;;;;;;5032922;28;20190;-42
2022/12/17 23:04:49;;;;;;;7.20;4.60;;;-0.70;99.90;;;;;;5048388;28;20311;-40
2022/12/17 23:07:15;;;;;;;4.90;3.93;;;-0.80;99.90;;;;;;5047914;28;20269;-39
2022/12/17 23:09:40;;;;;;;7.27;4.50;;;-0.50;99.90;;;;;;5048443;28;20574;-38
2022/12/17 23:14:50;;;;;;;6.00;4.83;;;-0.70;99.90;;;;;;5034331;28;20297;-41
2022/12/17 23:17:16;;;;;;;9.10;5.30;;;-0.70;99.90;;;;;;5038963;28;20494;-40
2022/12/17 23:19:41;;;;;;;5.70;4.80;;;-0.70;99.90;;;;;;5028613;28;20269;-36
2022/12/17 23:22:07;;;;;;;8.83;4.93;;;-0.40;99.90;;;;;;5026962;28;20218;-39
2022/12/17 23:24:33;;;;;;;7.57;4.90;;;-0.50;99.90;;;;;;5028341;28;20201;-41
2022/12/17 23:26:58;;;;;;;7.53;4.77;;;-0.50;99.90;;;;;;5029364;28;20829;-38
2022/12/17 23:29:24;;;;;;;6.47;4.60;;;-0.60;99.90;;;;;;5027880;28;20429;-36
2022/12/17 23:31:50;;;;;;;6.63;4.77;;;-0.60;99.90;;;;;;5028847;28;20194;-39
2022/12/17 23:34:15;;;;;;;6.30;4.10;;;-0.60;99.90;;;;;;5028048;28;20263;-38
2022/12/17 23:36:41;;;;;;;4.50;3.50;;;-0.70;99.90;;;;;;5035197;28;20213;-38
2022/12/17 23:39:06;;;;;;;6.37;4.13;;;-0.60;99.90;;;;;;5047804;28;20181;-36
2022/12/17 23:41:32;;;;;;;5.77;3.80;;;-0.50;99.90;;;;;;5048168;28;20217;-36
2022/12/17 23:43:59;;;;;;;5.93;4.17;;;-0.50;99.90;;;;;;5048000;28;20194;-38
2022/12/17 23:46:27;;;;;;;6.20;4.20;;;-0.80;99.90;;;;;;5047992;28;20403;-39
2022/12/17 23:48:53;;;;;;;5.90;3.60;;;-0.60;99.90;;;;;;5048417;28;20926;-37
2022/12/17 23:51:20;;;;;;;4.23;3.70;;;-0.70;99.90;;;;;;5047934;28;20425;-39
2022/12/17 23:53:46;;;;;;;6.13;3.90;;;-0.40;99.90;;;;;;5047470;28;20911;-37
2022/12/17 23:56:20;;;;;;;7.10;4.60;;;-0.30;99.90;;;;;;5048136;28;20437;-38
2022/12/17 23:58:46;;;;;;;4.37;3.90;;;-0.40;99.90;;;;;;5047430;28;20181;-40
